Time;durP1;ratioP1;P1;durP2;ratioP2;P2;SDS_P1;SDS_P2;PMS_P1;PMS_P2;Temp;Humidity;BMP_temperature;BMP_pressure;BME280_temperature;BME280_humidity;BME280_pressure;Samples;Min_cycle;Max_cycle;Signal;HPM_P1;HPM_P2
2022/03/06 00:00:21;;;;;;;6.32;3.22;;;;;;;4.79;41.48;100357.19;4473458;32;33950;-86
2022/03/06 00:02:49;;;;;;;8.02;4.07;;;;;;;4.78;41.57;100355.47;4460316;32;33884;-86
2022/03/06 00:05:16;;;;;;;5.80;3.20;;;;;;;4.56;42.37;100357.47;4471695;32;33701;-86
2022/03/06 00:07:44;;;;;;;5.40;3.80;;;;;;;4.84;41.75;100351.03;4458174;32;33809;-84
2022/03/06 00:10:12;;;;;;;10.23;4.35;;;;;;;4.71;41.89;100352.06;4458626;32;32998;-85
2022/03/06 00:12:40;;;;;;;8.85;4.72;;;;;;;4.71;41.87;100359.91;4470844;32;33201;-84
2022/03/06 00:15:07;;;;;;;9.68;3.97;;;;;;;4.40;42.60;100366.31;4446912;32;32722;-85
2022/03/06 00:17:35;;;;;;;8.50;4.35;;;;;;;4.44;42.53;100368.87;4471442;32;33124;-84
2022/03/06 00:20:08;;;;;;;6.05;4.22;;;;;;;4.37;42.81;100373.31;4464245;31;33291;-88
2022/03/06 00:22:36;;;;;;;7.97;4.18;;;;;;;4.46;42.60;100372.34;4462948;31;33689;-87
2022/03/06 00:25:05;;;;;;;7.85;4.28;;;;;;;4.28;43.07;100370.78;4458609;32;32901;-87
2022/03/06 00:27:33;;;;;;;5.05;3.45;;;;;;;4.08;43.44;100373.56;4455420;31;33019;-87
2022/03/06 00:30:02;;;;;;;8.90;3.83;;;;;;;4.21;43.00;100376.06;4463262;31;33633;-87
2022/03/06 00:32:29;;;;;;;7.03;4.62;;;;;;;4.15;43.37;100366.53;4463736;31;32819;-87
2022/03/06 00:34:57;;;;;;;8.15;4.57;;;;;;;4.16;43.42;100367.41;4453202;32;33011;-86
2022/03/06 00:37:25;;;;;;;10.45;4.57;;;;;;;3.81;44.24;100366.81;4458997;32;33659;-85
2022/03/06 00:39:52;;;;;;;6.80;3.60;;;;;;;3.99;43.83;100367.56;4461473;32;34719;-85
2022/03/06 00:42:20;;;;;;;7.43;3.65;;;;;;;3.22;45.65;100373.22;4471459;32;33902;-86
2022/03/06 00:44:48;;;;;;;7.53;3.50;;;;;;;3.18;45.44;100373.25;4451206;32;32591;-86
2022/03/06 00:47:15;;;;;;;8.02;4.07;;;;;;;3.30;45.05;100373.22;4451636;32;33722;-86
2022/03/06 00:49:43;;;;;;;6.20;3.25;;;;;;;3.44;44.53;100374.00;4471093;32;33528;-86
2022/03/06 00:52:12;;;;;;;5.25;2.95;;;;;;;3.44;44.13;100366.16;4471295;32;34552;-86
2022/03/06 00:54:40;;;;;;;7.32;3.58;;;;;;;3.50;44.26;100375.72;4471990;32;34199;-86
2022/03/06 00:57:08;;;;;;;7.43;4.72;;;;;;;3.43;44.63;100374.03;4460789;31;34653;-85
2022/03/06 00:59:36;;;;;;;8.70;3.95;;;;;;;3.97;43.97;100378.00;4463354;32;34547;-86
2022/03/06 01:02:06;;;;;;;8.45;3.87;;;;;;;3.67;44.64;100373.00;4458030;32;33077;-85
2022/03/06 01:04:34;;;;;;;7.22;3.37;;;;;;;3.49;45.16;100368.75;4470514;32;32560;-86
2022/03/06 01:07:02;;;;;;;5.45;3.10;;;;;;;3.42;45.32;100370.53;4450682;32;32974;-86
2022/03/06 01:09:30;;;;;;;8.68;3.58;;;;;;;3.31;45.47;100362.75;4465538;32;32920;-86
2022/03/06 01:11:57;;;;;;;8.88;3.65;;;;;;;3.28;45.59;100365.41;4458198;32;33629;-86
2022/03/06 01:14:26;;;;;;;7.32;3.78;;;;;;;3.17;45.77;100375.00;4469705;32;33623;-86
2022/03/06 01:16:53;;;;;;;5.28;2.80;;;;;;;3.30;45.47;100371.47;4458769;32;32501;-87
2022/03/06 01:19:21;;;;;;;5.28;2.90;;;;;;;3.34;45.36;100364.50;4461367;32;33495;-89
2022/03/06 01:21:49;;;;;;;5.32;2.80;;;;;;;3.41;44.94;100354.88;4447227;32;33181;-89
2022/03/06 01:24:17;;;;;;;5.47;3.33;;;;;;;3.32;45.34;100351.47;4447072;32;32029;-89
2022/03/06 01:26:45;;;;;;;5.32;3.28;;;;;;;3.31;45.24;100354.91;4446564;32;33505;-89
2022/03/06 01:29:13;;;;;;;5.97;3.15;;;;;;;3.17;45.33;100356.72;4446487;32;33357;-89
2022/03/06 01:31:40;;;;;;;5.35;3.28;;;;;;;3.00;46.12;100351.59;4446208;32;33714;-87
2022/03/06 01:34:08;;;;;;;8.25;3.37;;;;;;;3.07;46.23;100348.06;4446187;32;32688;-87
2022/03/06 01:36:37;;;;;;;4.45;3.00;;;;;;;3.16;46.14;100341.97;4471786;32;32795;-87
2022/03/06 01:39:04;;;;;;;4.43;2.65;;;;;;;3.33;45.51;100334.06;4471773;32;32982;-86
2022/03/06 01:41:34;;;;;;;3.97;2.75;;;;;;;3.17;45.86;100333.25;4484974;32;33513;-86
2022/03/06 01:44:04;;;;;;;6.97;3.75;;;;;;;3.02;46.61;100338.53;4472369;32;33463;-86
2022/03/06 01:46:31;;;;;;;6.25;3.85;;;;;;;2.87;46.73;100336.88;4458958;32;32664;-86
2022/03/06 01:48:59;;;;;;;7.22;3.72;;;;;;;2.98;46.43;100329.00;4472023;32;34760;-87
2022/03/06 01:51:27;;;;;;;5.07;3.50;;;;;;;2.96;46.64;100333.38;4467002;31;33149;-86
2022/03/06 01:53:54;;;;;;;6.68;3.85;;;;;;;2.79;47.04;100321.25;4458531;32;32944;-87
2022/03/06 01:56:21;;;;;;;8.25;3.92;;;;;;;2.72;47.42;100327.38;4470232;31;32030;-86
2022/03/06 01:58:49;;;;;;;7.60;3.80;;;;;;;2.62;47.88;100320.44;4466402;32;34677;-86
2022/03/06 02:01:18;;;;;;;7.12;3.70;;;;;;;2.68;47.55;100320.41;4470327;31;34526;-87
2022/03/06 02:03:46;;;;;;;8.82;4.00;;;;;;;2.85;47.13;100319.47;4471533;32;33285;-85
2022/03/06 02:06:16;;;;;;;6.47;3.47;;;;;;;2.59;47.88;100322.19;4458906;31;33788;-86
2022/03/06 02:08:43;;;;;;;7.40;4.12;;;;;;;2.58;47.95;100313.50;4458134;31;33852;-87
2022/03/06 02:11:11;;;;;;;6.22;3.83;;;;;;;2.63;47.71;100314.34;4456942;32;34330;-87
2022/03/06 02:13:39;;;;;;;11.57;5.18;;;;;;;2.35;48.35;100321.38;4473879;31;33800;-87
2022/03/06 02:16:07;;;;;;;8.38;4.22;;;;;;;2.50;47.99;100310.03;4450022;32;32522;-87
2022/03/06 02:18:35;;;;;;;7.40;3.78;;;;;;;2.45;48.27;100314.41;4471974;32;34562;-88
2022/03/06 02:21:11;;;;;;;8.13;3.25;;;;;;;2.37;48.29;100319.63;4467504;32;33203;-86
2022/03/06 02:23:39;;;;;;;7.35;3.90;;;;;;;2.11;48.96;100326.62;4459441;32;33404;-86
2022/03/06 02:26:08;;;;;;;9.13;3.72;;;;;;;2.36;48.36;100324.84;4455192;32;33937;-86
2022/03/06 02:28:36;;;;;;;7.25;3.60;;;;;;;2.42;48.08;100312.69;4458514;32;34760;-86
2022/03/06 02:31:03;;;;;;;5.62;3.10;;;;;;;2.25;48.48;100328.34;4466265;31;32787;-86
2022/03/06 02:33:31;;;;;;;6.90;3.35;;;;;;;2.40;48.14;100324.84;4469629;31;32397;-87
2022/03/06 02:35:58;;;;;;;6.65;3.72;;;;;;;2.50;47.78;100323.06;4459929;32;33099;-87
2022/03/06 02:38:26;;;;;;;7.50;3.70;;;;;;;2.52;47.52;100321.34;4458236;32;34138;-86
2022/03/06 02:40:54;;;;;;;5.78;3.05;;;;;;;2.38;48.07;100333.56;4458140;32;34095;-87
2022/03/06 02:43:22;;;;;;;7.12;3.92;;;;;;;1.71;49.39;100332.72;4467804;31;32840;-86
2022/03/06 02:45:50;;;;;;;9.30;4.30;;;;;;;2.05;48.77;100324.91;4461093;32;33822;-86
2022/03/06 02:48:19;;;;;;;11.43;4.75;;;;;;;2.14;48.56;100321.44;4472307;31;34050;-86
2022/03/06 02:50:46;;;;;;;11.63;4.57;;;;;;;2.03;49.04;100319.66;4459902;31;33690;-86
2022/03/06 02:53:14;;;;;;;11.65;4.47;;;;;;;1.99;49.32;100319.69;4450289;31;32751;-86
2022/03/06 02:55:42;;;;;;;9.05;4.32;;;;;;;2.03;48.85;100321.41;4460631;32;34081;-84
2022/03/06 02:58:10;;;;;;;7.47;4.43;;;;;;;1.94;49.16;100318.81;4469207;32;35351;-84
2022/03/06 03:00:38;;;;;;;8.48;3.90;;;;;;;1.95;49.17;100325.78;4472633;32;32860;-84
2022/03/06 03:03:05;;;;;;;7.87;3.97;;;;;;;1.89;49.23;100323.16;4457145;32;32233;-84
2022/03/06 03:05:48;;;;;;;8.20;4.20;;;;;;;2.08;48.62;100324.00;4458073;32;33521;-84
2022/03/06 03:08:16;;;;;;;6.78;3.78;;;;;;;2.02;48.88;100312.72;4459245;32;33375;-84
2022/03/06 03:10:43;;;;;;;11.35;5.00;;;;;;;1.89;49.21;100317.94;4462828;32;32697;-84
2022/03/06 03:13:11;;;;;;;7.15;3.72;;;;;;;1.93;49.33;100317.09;4457140;32;33488;-86
2022/03/06 03:15:40;;;;;;;8.35;4.70;;;;;;;1.67;49.37;100320.56;4464634;32;33053;-86
2022/03/06 03:18:07;;;;;;;7.43;4.47;;;;;;;1.83;49.26;100317.97;4448605;32;33841;-86
2022/03/06 03:20:34;;;;;;;10.43;5.28;;;;;;;1.70;49.53;100315.34;4452347;31;33083;-86
2022/03/06 03:23:02;;;;;;;7.20;3.97;;;;;;;1.66;50.06;100317.94;4448532;31;32269;-87
2022/03/06 03:25:30;;;;;;;8.30;3.95;;;;;;;1.84;49.36;100323.16;4457635;32;33763;-88
2022/03/06 03:27:58;;;;;;;7.70;3.67;;;;;;;1.72;49.56;100323.16;4469893;32;32901;-86
2022/03/06 03:30:26;;;;;;;8.48;4.62;;;;;;;1.54;49.71;100324.87;4469698;32;33594;-87
2022/03/06 03:32:53;;;;;;;8.25;3.95;;;;;;;1.43;50.17;100325.75;4465100;31;33803;-84
2022/03/06 03:35:21;;;;;;;7.15;3.83;;;;;;;1.36;50.45;100326.59;4450831;32;33069;-84
2022/03/06 03:37:49;;;;;;;5.70;4.25;;;;;;;1.53;50.01;100325.75;4459968;32;33888;-85
2022/03/06 03:40:17;;;;;;;7.68;3.83;;;;;;;1.41;50.15;100333.53;4471445;32;34111;-85
2022/03/06 03:42:45;;;;;;;7.20;3.72;;;;;;;1.00;51.04;100336.03;4471924;32;33304;-85
2022/03/06 03:45:12;;;;;;;6.93;3.97;;;;;;;1.02;51.18;100326.50;4466456;31;33934;-84
2022/03/06 03:47:40;;;;;;;7.18;4.12;;;;;;;1.07;51.52;100336.91;4466952;32;33455;-85
2022/03/06 03:50:09;;;;;;;7.47;4.28;;;;;;;0.94;51.53;100336.00;4473887;32;34328;-86
2022/03/06 03:52:36;;;;;;;8.60;4.22;;;;;;;1.28;50.89;100336.97;4470808;31;32453;-84
2022/03/06 03:55:05;;;;;;;7.90;4.35;;;;;;;1.02;51.75;100342.09;4471767;31;33461;-87
2022/03/06 03:57:32;;;;;;;7.32;4.00;;;;;;;1.19;51.45;100336.97;4461512;31;33948;-85
2022/03/06 04:00:00;;;;;;;8.18;4.45;;;;;;;1.20;51.22;100334.34;4459925;31;33492;-86
2022/03/06 04:02:33;;;;;;;7.32;4.03;;;;;;;1.16;51.74;100343.00;4462126;31;32364;-86
2022/03/06 04:05:06;;;;;;;7.32;3.85;;;;;;;1.07;51.37;100347.31;4471568;32;34992;-86
2022/03/06 04:07:33;;;;;;;7.22;3.30;;;;;;;1.02;51.72;100355.09;4460646;32;34307;-87
2022/03/06 04:10:01;;;;;;;6.75;3.72;;;;;;;0.99;51.76;100345.53;4463793;32;34292;-87
2022/03/06 04:12:29;;;;;;;7.20;3.70;;;;;;;1.13;51.30;100347.31;4462315;32;32377;-87
2022/03/06 04:14:57;;;;;;;8.85;3.37;;;;;;;1.28;50.77;100350.88;4465017;32;32792;-85
2022/03/06 04:17:25;;;;;;;9.65;3.55;;;;;;;0.85;51.65;100351.53;4469946;32;34960;-86
2022/03/06 04:19:52;;;;;;;6.68;3.00;;;;;;;1.10;51.36;100358.59;4472223;31;33458;-85
2022/03/06 04:22:20;;;;;;;4.95;2.80;;;;;;;1.09;51.32;100354.25;4459822;32;32424;-86
2022/03/06 04:24:48;;;;;;;8.15;4.03;;;;;;;0.71;52.18;100356.69;4459795;31;33606;-86
2022/03/06 04:27:16;;;;;;;6.45;3.62;;;;;;;0.70;52.80;100353.22;4465889;31;32908;-85
2022/03/06 04:29:44;;;;;;;6.78;3.92;;;;;;;0.60;53.09;100366.16;4460459;31;33801;-87
2022/03/06 04:32:12;;;;;;;10.07;3.97;;;;;;;0.83;52.23;100355.87;4452555;32;32437;-87
2022/03/06 04:34:47;;;;;;;9.05;3.70;;;;;;;0.60;52.92;100358.34;4451881;32;34090;-87
2022/03/06 04:37:15;;;;;;;9.02;4.03;;;;;;;0.70;52.55;100355.81;4470543;32;34658;-87
2022/03/06 04:39:43;;;;;;;5.90;3.28;;;;;;;0.74;52.20;100359.31;4470744;32;33506;-87
2022/03/06 04:42:10;;;;;;;7.30;3.70;;;;;;;0.75;51.94;100361.91;4460976;32;33120;-86
2022/03/06 04:44:39;;;;;;;5.80;3.40;;;;;;;0.87;51.67;100365.44;4451323;32;32684;-87
2022/03/06 04:47:07;;;;;;;9.68;3.75;;;;;;;0.88;51.66;100360.25;4458506;31;33933;-87
2022/03/06 04:49:35;;;;;;;7.00;4.12;;;;;;;0.67;52.31;100362.75;4466245;32;33544;-87
2022/03/06 04:52:03;;;;;;;6.80;3.95;;;;;;;0.63;52.31;100359.25;4458879;32;34042;-87
2022/03/06 04:54:31;;;;;;;6.30;3.50;;;;;;;0.57;52.75;100356.63;4456764;32;33191;-87
2022/03/06 04:57:00;;;;;;;6.93;4.20;;;;;;;0.71;52.27;100357.56;4469801;31;32916;-87
2022/03/06 04:59:28;;;;;;;9.02;3.58;;;;;;;0.54;52.35;100361.78;4458695;32;33011;-87
2022/03/06 05:01:56;;;;;;;7.40;3.80;;;;;;;0.73;52.09;100353.25;4452009;32;32716;-87
2022/03/06 05:04:39;;;;;;;4.60;3.37;;;;;;;0.67;51.89;100363.63;4461017;31;32950;-85
2022/03/06 05:07:07;;;;;;;9.88;4.03;;;;;;;0.44;52.62;100363.47;4460327;31;33959;-85
2022/03/06 05:09:35;;;;;;;7.32;3.75;;;;;;;0.33;53.15;100361.66;4463039;32;32868;-85
2022/03/06 05:12:03;;;;;;;7.78;4.07;;;;;;;0.52;52.47;100363.50;4456007;32;33070;-85
2022/03/06 05:14:33;;;;;;;7.57;3.78;;;;;;;0.61;52.31;100366.16;4447673;32;32861;-86
2022/03/06 05:17:10;;;;;;;8.10;4.43;;;;;;;0.32;53.49;100365.13;4458922;32;34798;-86
2022/03/06 05:19:38;;;;;;;8.95;3.55;;;;;;;0.40;53.24;100364.31;4448856;32;33998;-86
2022/03/06 05:22:06;;;;;;;9.40;4.28;;;;;;;0.33;53.31;100378.09;4454695;32;32322;-86
2022/03/06 05:24:34;;;;;;;8.63;4.10;;;;;;;0.47;53.40;100375.59;4453856;32;34586;-87
2022/03/06 05:27:02;;;;;;;15.18;5.72;;;;;;;0.36;53.32;100379.87;4441476;32;33245;-86
2022/03/06 05:29:30;;;;;;;27.40;11.77;;;;;;;-0.21;54.23;100378.53;4449206;32;32608;-86
2022/03/06 05:31:57;;;;;;;46.35;17.75;;;;;;;0.06;53.92;100378.78;4451375;32;32347;-86
2022/03/06 05:34:25;;;;;;;38.88;15.35;;;;;;;-0.14;54.72;100375.13;4447736;32;33532;-85
2022/03/06 05:36:54;;;;;;;36.85;13.25;;;;;;;0.10;54.46;100377.09;4448940;32;33778;-85
2022/03/06 05:39:22;;;;;;;17.27;8.57;;;;;;;0.18;54.39;100376.25;4457183;32;33696;-85
2022/03/06 05:41:49;;;;;;;19.40;8.30;;;;;;;0.50;53.21;100370.44;4458756;32;33030;-85
2022/03/06 05:44:18;;;;;;;18.02;7.82;;;;;;;0.38;53.48;100375.53;4458389;32;32583;-85
2022/03/06 05:46:45;;;;;;;10.73;5.53;;;;;;;0.02;55.09;100381.34;4433340;32;33185;-85
2022/03/06 05:49:13;;;;;;;12.68;5.97;;;;;;;0.41;53.86;100375.56;4452344;32;34099;-85
2022/03/06 05:51:42;;;;;;;13.13;5.80;;;;;;;-0.01;54.74;100382.16;4453763;32;32769;-85
2022/03/06 05:54:09;;;;;;;12.88;5.65;;;;;;;0.03;55.00;100378.75;4444598;32;34263;-85
2022/03/06 05:56:39;;;;;;;12.68;5.37;;;;;;;0.31;54.19;100381.56;4438759;32;32310;-85
2022/03/06 05:59:07;;;;;;;9.38;3.87;;;;;;;0.65;53.09;100375.72;4456333;32;33518;-86
2022/03/06 06:01:34;;;;;;;10.35;4.30;;;;;;;0.55;53.15;100384.31;4458884;32;31838;-84
2022/03/06 06:04:02;;;;;;;7.22;4.12;;;;;;;0.58;53.30;100383.47;4439192;32;32462;-84
2022/03/06 06:06:30;;;;;;;10.43;4.62;;;;;;;0.55;53.63;100376.53;4459220;32;34167;-84
2022/03/06 06:08:58;;;;;;;10.25;3.80;;;;;;;0.86;53.21;100366.31;4457261;32;33918;-84
2022/03/06 06:11:25;;;;;;;10.27;4.82;;;;;;;1.34;51.29;100365.63;4452214;32;32839;-84
2022/03/06 06:13:53;;;;;;;8.85;4.05;;;;;;;1.61;51.10;100362.19;4461557;32;33722;-84
2022/03/06 06:16:21;;;;;;;32.67;14.48;;;;;;;1.76;50.05;100367.44;4459782;32;34769;-85
2022/03/06 06:18:49;;;;;;;18.75;9.95;;;;;;;1.92;49.50;100354.41;4455868;32;34775;-84
2022/03/06 06:21:19;;;;;;;14.70;7.65;;;;;;;1.87;49.34;100358.75;4457598;32;33267;-84
2022/03/06 06:23:46;;;;;;;8.63;4.90;;;;;;;1.85;49.54;100347.44;4457003;32;35541;-83
2022/03/06 06:26:14;;;;;;;4.85;3.25;;;;;;;1.82;49.67;100350.06;4465147;32;33979;-83
2022/03/06 06:28:42;;;;;;;4.95;3.10;;;;;;;2.22;48.77;100346.56;4445883;32;33428;-83
2022/03/06 06:31:10;;;;;;;6.87;2.50;;;;;;;2.64;47.40;100333.47;4446285;32;33478;-82
2022/03/06 06:33:37;;;;;;;3.70;2.30;;;;;;;2.69;46.99;100343.00;4457966;32;33441;-83
2022/03/06 06:36:06;;;;;;;5.05;2.55;;;;;;;2.82;46.41;100346.44;4439304;32;33968;-83
2022/03/06 06:38:33;;;;;;;4.35;2.58;;;;;;;2.70;47.72;100344.75;4432143;32;31941;-84
2022/03/06 06:41:01;;;;;;;4.22;2.53;;;;;;;3.08;46.08;100351.56;4451427;32;32306;-84
2022/03/06 06:43:29;;;;;;;5.00;3.45;;;;;;;3.32;45.27;100348.84;4439014;32;34224;-84
2022/03/06 06:46:07;;;;;;;8.75;3.55;;;;;;;3.53;45.96;100349.59;4446065;32;32550;-84
2022/03/06 06:48:35;;;;;;;2.75;2.10;;;;;;;3.78;44.66;100352.91;4442723;32;34208;-84
2022/03/06 06:51:03;;;;;;;5.47;2.67;;;;;;;3.84;44.46;100351.09;4457225;32;33411;-84
2022/03/06 06:53:31;;;;;;;6.15;2.62;;;;;;;3.85;44.04;100350.25;4459461;32;33171;-83
2022/03/06 06:55:59;;;;;;;7.05;2.85;;;;;;;3.93;44.78;100354.53;4447891;32;33676;-83
2022/03/06 06:58:26;;;;;;;2.72;1.67;;;;;;;3.56;43.76;100349.56;4445718;32;33012;-83
2022/03/06 07:00:54;;;;;;;6.35;2.60;;;;;;;3.31;44.72;100359.28;4457347;32;32365;-84
2022/03/06 07:03:22;;;;;;;3.42;1.80;;;;;;;3.92;43.95;100343.22;4457797;32;34849;-84
2022/03/06 07:05:50;;;;;;;5.55;3.03;;;;;;;3.92;42.25;100353.66;4451369;32;34633;-85
2022/03/06 07:08:18;;;;;;;4.30;2.42;;;;;;;3.79;43.93;100350.25;4459804;32;33067;-84
2022/03/06 07:10:51;;;;;;;5.00;1.98;;;;;;;4.30;42.36;100350.72;4472224;32;32873;-86
2022/03/06 07:13:41;;;;;;;4.12;2.33;;;;;;;4.01;42.65;100357.94;4453056;32;32597;-84
2022/03/06 07:16:09;;;;;;;5.07;2.50;;;;;;;4.21;42.43;100349.94;4460234;32;33794;-88
2022/03/06 07:18:37;;;;;;;4.12;2.85;;;;;;;4.40;42.37;100351.50;4449295;32;32916;-90
2022/03/06 07:21:05;;;;;;;3.97;2.00;;;;;;;4.59;42.31;100349.56;4448486;32;32465;-89
2022/03/06 07:23:33;;;;;;;4.00;2.08;;;;;;;4.79;40.91;100355.44;4448570;32;32873;-89
2022/03/06 07:26:00;;;;;;;4.93;2.55;;;;;;;4.51;42.04;100354.88;4464784;32;33553;-89
2022/03/06 07:28:29;;;;;;;3.95;2.08;;;;;;;4.94;40.33;100349.19;4454455;32;33038;-88
2022/03/06 07:30:58;;;;;;;5.68;2.62;;;;;;;4.85;41.38;100344.06;4458082;32;33415;-88
2022/03/06 07:33:25;;;;;;;4.70;2.45;;;;;;;4.52;41.01;100350.53;4448437;32;32956;-90
2022/03/06 07:35:53;;;;;;;5.93;2.72;;;;;;;4.49;41.25;100346.16;4448804;32;34393;-88
2022/03/06 07:38:21;;;;;;;3.62;2.70;;;;;;;4.78;40.78;100348.47;4460699;32;32908;-89
2022/03/06 07:40:49;;;;;;;3.85;2.15;;;;;;;5.20;39.99;100340.97;4448206;32;32564;-90
2022/03/06 07:43:22;;;;;;;3.55;2.08;;;;;;;5.46;39.85;100343.25;4436574;32;33097;-90
2022/03/06 07:45:50;;;;;;;3.90;2.33;;;;;;;5.49;39.31;100348.44;4434208;32;33155;-89
2022/03/06 07:48:18;;;;;;;5.22;2.58;;;;;;;5.55;38.32;100348.34;4421005;32;32660;-89
2022/03/06 07:50:48;;;;;;;3.87;2.03;;;;;;;5.04;40.44;100348.19;4446516;32;32888;-90
2022/03/06 07:53:16;;;;;;;4.82;2.17;;;;;;;5.65;37.98;100341.25;4433539;32;32910;-90
2022/03/06 07:55:43;;;;;;;3.78;2.15;;;;;;;5.56;38.83;100338.75;4433273;32;33853;-89
2022/03/06 07:58:11;;;;;;;4.03;2.55;;;;;;;5.45;38.73;100332.78;4433704;32;32258;-89
2022/03/06 08:00:39;;;;;;;6.68;3.08;;;;;;;5.27;38.84;100331.28;4433142;32;32545;-90
2022/03/06 08:03:07;;;;;;;6.35;2.75;;;;;;;5.24;38.68;100326.97;4433033;32;32308;-90
2022/03/06 08:09:57;;;;;;;5.40;2.45;;;;;;;5.03;39.30;100340.31;4470686;32;34654;-89
2022/03/06 08:12:27;;;;;;;4.22;2.75;;;;;;;5.12;39.79;100342.81;4450683;32;32039;-90
2022/03/06 08:14:55;;;;;;;4.07;2.30;;;;;;;5.04;39.97;100335.09;4464404;32;32942;-90
2022/03/06 08:17:23;;;;;;;4.53;2.10;;;;;;;5.70;38.49;100328.94;4451087;32;33303;-90
2022/03/06 08:19:53;;;;;;;5.75;2.62;;;;;;;5.54;38.72;100332.66;4449959;32;33306;-89
2022/03/06 08:22:21;;;;;;;5.80;2.80;;;;;;;5.86;38.50;100327.78;4448002;32;31930;-89
2022/03/06 08:24:49;;;;;;;4.20;2.40;;;;;;;5.48;38.05;100330.12;4448526;32;34095;-90
2022/03/06 08:27:18;;;;;;;4.50;2.37;;;;;;;6.08;37.11;100314.38;4447662;32;32664;-89
2022/03/06 08:29:45;;;;;;;6.07;2.33;;;;;;;5.44;37.42;100325.81;4460296;32;33961;-89
2022/03/06 08:32:13;;;;;;;3.53;1.85;;;;;;;5.16;38.09;100322.72;4461110;32;33360;-89
2022/03/06 08:34:42;;;;;;;4.62;2.65;;;;;;;6.18;36.36;100317.72;4435499;32;33023;-89
2022/03/06 08:37:10;;;;;;;4.30;2.30;;;;;;;5.88;37.03;100312.91;4450077;31;33335;-89
2022/03/06 08:39:38;;;;;;;6.15;2.25;;;;;;;6.41;35.82;100300.66;4465561;32;33677;-89
2022/03/06 08:42:06;;;;;;;2.87;2.12;;;;;;;6.33;36.37;100307.78;4448431;32;33814;-89
2022/03/06 08:44:34;;;;;;;3.28;1.90;;;;;;;6.68;36.72;100296.62;4455459;31;32685;-89
2022/03/06 08:47:02;;;;;;;4.75;2.08;;;;;;;6.95;35.93;100304.84;4457670;32;34837;-90
2022/03/06 08:49:31;;;;;;;3.37;2.05;;;;;;;6.13;36.23;100304.69;4450183;32;32403;-89
2022/03/06 08:51:59;;;;;;;3.92;2.10;;;;;;;6.79;35.41;100306.03;4454955;31;32665;-90
2022/03/06 08:54:27;;;;;;;4.22;2.12;;;;;;;7.06;34.71;100300.22;4460521;31;32929;-89
2022/03/06 08:56:55;;;;;;;5.18;3.22;;;;;;;7.18;34.98;100294.72;4458707;32;33202;-88
2022/03/06 08:59:23;;;;;;;3.60;2.05;;;;;;;7.11;33.52;100292.25;4457308;32;33388;-89
2022/03/06 09:01:55;;;;;;;3.22;1.80;;;;;;;6.88;34.52;100297.97;4448055;31;32830;-90
2022/03/06 09:04:40;;;;;;;3.37;2.12;;;;;;;7.32;33.96;100294.41;4452512;31;32741;-90
2022/03/06 09:07:08;;;;;;;4.22;2.55;;;;;;;7.10;34.05;100301.03;4457923;31;32902;-90
2022/03/06 09:09:36;;;;;;;3.92;2.37;;;;;;;6.51;33.97;100300.50;4459454;31;33105;-91
2022/03/06 09:12:05;;;;;;;5.62;3.25;;;;;;;6.92;33.95;100300.50;4459508;32;32393;-91
2022/03/06 09:14:32;;;;;;;4.85;2.70;;;;;;;6.71;34.60;100302.72;4457685;32;35930;-90
2022/03/06 09:17:01;;;;;;;6.57;3.35;;;;;;;6.54;34.34;100303.91;4457922;32;33991;-90
2022/03/06 09:19:28;;;;;;;6.72;2.80;;;;;;;6.70;33.60;100304.47;4451498;32;32761;-91
2022/03/06 09:21:57;;;;;;;6.05;3.50;;;;;;;6.81;33.80;100294.63;4453424;31;32264;-90
2022/03/06 09:24:25;;;;;;;5.12;3.08;;;;;;;7.48;33.06;100294.91;4449689;32;32910;-90
2022/03/06 09:26:53;;;;;;;6.85;3.42;;;;;;;7.77;32.86;100288.97;4446336;31;33103;-90
2022/03/06 09:29:20;;;;;;;6.50;3.30;;;;;;;7.63;32.00;100291.06;4473847;32;33931;-90
2022/03/06 09:31:49;;;;;;;9.43;3.78;;;;;;;7.22;33.01;100292.88;4449597;31;32723;-90
2022/03/06 09:34:17;;;;;;;5.82;3.58;;;;;;;7.34;33.17;100289.09;4452490;31;33097;-89
2022/03/06 09:36:47;;;;;;;6.97;4.43;;;;;;;7.24;33.36;100290.22;4458275;31;33421;-90
2022/03/06 09:39:15;;;;;;;6.40;3.80;;;;;;;7.32;33.23;100290.91;4450283;32;32950;-90
2022/03/06 09:41:43;;;;;;;7.37;3.60;;;;;;;7.52;33.01;100285.19;4476729;32;33533;-90
2022/03/06 09:44:12;;;;;;;8.43;4.22;;;;;;;7.41;33.67;100288.94;4465777;32;32496;-89
2022/03/06 09:46:42;;;;;;;8.07;3.33;;;;;;;7.60;33.09;100278.00;4459498;31;32525;-90
2022/03/06 09:49:10;;;;;;;7.28;3.62;;;;;;;7.61;32.84;100275.34;4458950;32;33993;-89
2022/03/06 09:51:56;;;;;;;6.07;3.35;;;;;;;7.13;33.35;100285.22;4471663;32;32961;-89
2022/03/06 09:54:24;;;;;;;7.40;3.70;;;;;;;6.77;34.33;100287.69;4464008;32;32976;-89
2022/03/06 09:56:52;;;;;;;7.05;3.72;;;;;;;7.27;34.09;100275.25;4457699;31;34117;-89
2022/03/06 09:59:19;;;;;;;5.57;3.42;;;;;;;7.64;33.76;100271.75;4458666;32;33133;-88
2022/03/06 10:01:47;;;;;;;6.87;4.28;;;;;;;7.80;33.52;100273.12;4458009;32;32739;-89
2022/03/06 10:04:25;;;;;;;7.07;3.60;;;;;;;7.90;35.01;100269.34;4454151;32;32796;-89
2022/03/06 10:07:06;;;;;;;10.82;4.15;;;;;;;8.55;32.30;100265.91;4465181;32;32820;-89
2022/03/06 10:09:51;;;;;;;5.32;3.58;;;;;;;8.66;31.58;100262.97;4459132;32;33092;-89
2022/03/06 10:12:29;;;;;;;6.95;3.95;;;;;;;8.62;31.68;100256.06;4460175;31;33160;-89
2022/03/06 10:15:05;;;;;;;6.28;3.92;;;;;;;7.88;32.66;100271.19;4451471;31;34108;-89
2022/03/06 10:17:34;;;;;;;8.48;4.12;;;;;;;8.07;32.63;100268.94;4452193;31;33081;-89
2022/03/06 10:20:09;;;;;;;8.30;4.00;;;;;;;8.27;33.17;100254.41;4463155;31;33345;-89
2022/03/06 10:22:41;;;;;;;4.78;3.60;;;;;;;8.53;34.82;100251.91;4452391;31;33441;-89
2022/03/06 10:25:16;;;;;;;8.25;4.72;;;;;;;8.93;33.35;100259.56;4459517;31;33005;-89
2022/03/06 10:27:46;;;;;;;7.97;4.40;;;;;;;9.28;31.12;100254.13;4460364;31;33268;-89
2022/03/06 10:30:26;;;;;;;9.15;3.97;;;;;;;8.88;30.51;100261.47;4458540;31;33006;-90
2022/03/06 10:32:55;;;;;;;6.37;3.50;;;;;;;9.35;30.42;100251.25;4477152;31;32755;-90
2022/03/06 10:35:38;;;;;;;6.87;4.12;;;;;;;8.78;30.77;100249.44;4454732;32;32832;-90
2022/03/06 10:38:36;;;;;;;6.40;3.78;;;;;;;9.15;30.73;100249.22;4449660;32;33240;-90
2022/03/06 10:41:16;;;;;;;5.80;3.30;;;;;;;9.03;31.00;100238.22;4445138;31;34247;-90
2022/03/06 10:43:43;;;;;;;7.22;4.03;;;;;;;9.26;30.53;100227.81;4455781;32;32905;-89
2022/03/06 10:46:14;;;;;;;8.27;4.37;;;;;;;9.22;33.45;100229.69;4449224;32;33149;-90
2022/03/06 10:49:07;;;;;;;7.87;3.62;;;;;;;9.30;31.23;100226.78;4463683;32;33154;-89
2022/03/06 10:51:39;;;;;;;8.80;4.57;;;;;;;10.03;29.08;100214.72;4460333;32;33052;-90
2022/03/06 10:54:08;;;;;;;9.52;4.20;;;;;;;9.86;30.06;100210.88;4470801;32;33698;-90
2022/03/06 10:56:36;;;;;;;11.52;3.55;;;;;;;10.17;30.61;100210.69;4451550;32;33107;-90
2022/03/06 10:59:05;;;;;;;7.28;4.55;;;;;;;10.30;30.62;100208.50;4463240;31;32928;-89
2022/03/06 11:01:34;;;;;;;7.45;4.22;;;;;;;10.72;29.72;100207.81;4450319;32;32853;-90
2022/03/06 11:04:04;;;;;;;7.37;4.82;;;;;;;10.32;28.04;100196.13;4456489;32;32084;-90
2022/03/06 11:06:41;;;;;;;5.37;4.05;;;;;;;10.17;30.46;100188.72;4456743;32;33831;-90
2022/03/06 11:09:11;;;;;;;6.47;3.95;;;;;;;10.18;30.33;100187.81;4461856;32;33245;-90
2022/03/06 11:11:40;;;;;;;8.18;4.50;;;;;;;11.03;27.97;100171.38;4464610;32;33818;-89
2022/03/06 11:14:08;;;;;;;7.80;4.93;;;;;;;10.70;28.50;100177.97;4470002;32;33539;-90
2022/03/06 11:16:38;;;;;;;6.72;3.72;;;;;;;10.38;29.33;100171.25;4469824;32;32868;-90
2022/03/06 11:19:07;;;;;;;7.90;4.80;;;;;;;10.45;28.46;100167.50;4471097;32;34173;-89
2022/03/06 11:21:36;;;;;;;6.47;4.05;;;;;;;10.08;29.47;100160.03;4450364;31;33554;-91
2022/03/06 11:24:27;;;;;;;8.90;5.32;;;;;;;10.93;27.29;100151.53;4450954;32;32235;-89
2022/03/06 11:27:12;;;;;;;9.25;5.03;;;;;;;10.44;28.58;100156.09;4450523;32;32904;-89
2022/03/06 11:30:02;;;;;;;7.03;4.20;;;;;;;10.31;28.72;100162.72;4470823;31;34713;-89
2022/03/06 11:32:32;;;;;;;8.23;4.65;;;;;;;10.33;28.37;100152.09;4456549;32;32874;-90
2022/03/06 11:35:15;;;;;;;8.73;4.60;;;;;;;10.80;27.94;100149.44;4462825;31;32372;-88
2022/03/06 11:37:49;;;;;;;;;;;;;;;10.20;29.00;100151.66;4456310;32;32791;-90
2022/03/06 11:40:37;;;;;;;8.27;4.75;;;;;;;10.74;29.24;100147.91;4469825;32;34642;-90
2022/03/06 11:43:08;;;;;;;10.98;5.12;;;;;;;9.83;29.02;100145.06;4456066;32;33173;-89
2022/03/06 11:45:50;;;;;;;7.03;4.32;;;;;;;9.98;29.36;100144.53;4450284;31;31984;-90